createdAt,value
2022-08-02T00:02:20.868Z,19.80
2022-08-02T00:06:22.436Z,19.76
2022-08-02T00:10:25.631Z,19.65
2022-08-02T00:14:27.286Z,19.56
2022-08-02T00:18:29.191Z,19.49
2022-08-02T00:22:30.851Z,19.43
2022-08-02T00:26:32.628Z,19.34
2022-08-02T00:30:34.252Z,19.28
2022-08-02T00:34:38.079Z,19.18
2022-08-02T00:38:39.831Z,19.12
2022-08-02T00:42:41.528Z,19.10
2022-08-02T00:46:43.719Z,19.07
2022-08-02T00:50:45.381Z,19.02
2022-08-02T00:54:46.957Z,19.01
2022-08-02T00:58:48.621Z,18.95
2022-08-02T01:02:50.839Z,18.92
2022-08-02T01:06:52.420Z,18.89
2022-08-02T01:10:54.023Z,18.88
2022-08-02T01:15:08.068Z,18.89
2022-08-02T01:19:27.869Z,18.83
2022-08-02T01:23:56.565Z,18.81
2022-08-02T01:28:07.195Z,18.74
2022-08-02T01:32:14.424Z,18.73
2022-08-02T01:36:18.882Z,18.67
2022-08-02T01:40:32.346Z,18.64
2022-08-02T01:44:38.215Z,18.61
2022-08-02T01:48:41.547Z,18.60
2022-08-02T01:52:53.162Z,18.60
2022-08-02T01:56:57.546Z,18.59
2022-08-02T02:01:01.213Z,18.56
2022-08-02T02:05:03.829Z,18.51
2022-08-02T02:09:06.658Z,18.47
2022-08-02T02:13:09.668Z,18.40
2022-08-02T02:17:50.769Z,18.34
2022-08-02T02:21:35.576Z,18.28
2022-08-02T02:25:46.591Z,18.24
2022-08-02T02:29:52.045Z,18.20
2022-08-02T02:34:13.493Z,18.17
2022-08-02T02:38:18.103Z,18.13
2022-08-02T02:42:26.407Z,18.10
2022-08-02T02:46:30.868Z,18.02
2022-08-02T02:50:33.235Z,17.89
2022-08-02T02:54:36.924Z,17.81
2022-08-02T02:58:39.781Z,17.83
2022-08-02T03:02:42.483Z,17.77
2022-08-02T03:06:44.171Z,17.70
2022-08-02T03:10:46.016Z,17.65
2022-08-02T03:14:49.252Z,17.58
2022-08-02T03:18:51.323Z,17.55
2022-08-02T03:22:52.936Z,17.52
2022-08-02T03:26:54.676Z,17.43
2022-08-02T03:30:56.733Z,17.43
2022-08-02T03:34:58.542Z,17.45
2022-08-02T03:39:01.667Z,17.49
2022-08-02T03:43:04.055Z,17.55
2022-08-02T03:47:07.248Z,17.63
2022-08-02T03:51:09.113Z,17.70
2022-08-02T03:55:12.759Z,17.72
2022-08-02T03:59:15.085Z,17.71
2022-08-02T04:03:19.899Z,17.70
2022-08-02T04:08:02.448Z,17.68
2022-08-02T04:11:43.453Z,17.68
2022-08-02T04:15:46.806Z,17.66
2022-08-02T04:19:56.236Z,17.66
2022-08-02T04:23:58.800Z,17.63
2022-08-02T04:28:16.966Z,17.60
2022-08-02T04:32:21.199Z,17.56
2022-08-02T04:36:30.838Z,17.56
2022-08-02T04:40:33.361Z,17.52
2022-08-02T04:44:35.447Z,17.52
2022-08-02T04:48:37.189Z,17.51
2022-08-02T04:52:42.780Z,17.51
2022-08-02T04:56:47.191Z,17.51
2022-08-02T05:00:48.769Z,17.61
2022-08-02T05:04:51.800Z,17.76
2022-08-02T05:08:53.852Z,17.90
2022-08-02T05:12:55.580Z,18.02
2022-08-02T05:16:57.262Z,18.12
2022-08-02T06:39:46.631Z,21.35
2022-08-02T06:44:13.732Z,21.48
2022-08-02T08:08:12.405Z,24.55
2022-08-02T08:12:23.767Z,24.75
2022-08-02T08:43:26.233Z,26.65
2022-08-02T08:47:36.957Z,26.71
2022-08-02T08:51:43.482Z,26.90
2022-08-02T08:55:45.613Z,27.05
2022-08-02T08:59:47.271Z,27.06
2022-08-02T09:03:49.609Z,27.24
2022-08-02T09:07:54.607Z,27.46
2022-08-02T09:12:14.283Z,27.76
2022-08-02T09:16:26.839Z,27.84
2022-08-02T09:20:30.816Z,27.84
2022-08-02T09:24:45.423Z,27.64
2022-08-02T10:03:34.962Z,28.93
2022-08-02T10:07:37.185Z,28.97
2022-08-02T10:11:40.057Z,29.07
2022-08-02T10:15:50.510Z,29.38
2022-08-02T10:20:01.833Z,29.43
2022-08-02T10:24:09.732Z,29.57
2022-08-02T10:28:16.645Z,29.58
2022-08-02T10:32:31.372Z,29.84
2022-08-02T10:36:35.092Z,29.88
2022-08-02T10:40:44.519Z,29.91
2022-08-02T10:44:46.195Z,30.36
2022-08-02T10:53:34.727Z,30.55
2022-08-02T10:57:36.904Z,30.47
2022-08-02T11:01:44.069Z,30.49
2022-08-02T11:06:07.000Z,29.87
2022-08-02T11:10:38.960Z,29.38
2022-08-02T11:14:43.565Z,29.64
2022-08-02T11:18:51.530Z,29.91
2022-08-02T11:22:55.382Z,30.02
2022-08-02T11:26:58.292Z,29.55
2022-08-02T11:31:01.449Z,30.17
2022-08-02T11:35:05.027Z,30.73
2022-08-02T11:39:15.925Z,30.67
2022-08-02T11:43:23.108Z,30.42
2022-08-02T11:47:24.895Z,30.87
2022-08-02T11:51:26.621Z,31.17
2022-08-02T11:55:29.970Z,32.07
2022-08-02T11:59:31.539Z,32.70
2022-08-02T12:03:42.333Z,33.22
2022-08-02T12:07:46.383Z,33.87
2022-08-02T12:11:51.291Z,34.08
2022-08-02T12:15:53.126Z,33.93
2022-08-02T12:19:54.750Z,33.98
2022-08-02T12:23:59.702Z,33.86
2022-08-02T12:28:18.069Z,34.37
2022-08-02T12:32:25.092Z,34.90
2022-08-02T12:36:30.163Z,35.08
2022-08-02T12:40:33.113Z,36.07
2022-08-02T12:44:37.632Z,37.22
2022-08-02T12:48:56.475Z,37.26
2022-08-02T12:53:11.218Z,37.37
2022-08-02T12:57:18.849Z,37.90
2022-08-02T13:01:23.044Z,38.37
2022-08-02T13:05:25.751Z,38.23
2022-08-02T13:09:29.496Z,37.26
2022-08-02T13:13:31.192Z,37.84
2022-08-02T13:17:32.856Z,38.61
2022-08-02T13:21:39.798Z,38.74
2022-08-02T13:25:42.687Z,39.12
2022-08-02T13:29:44.358Z,39.14
2022-08-02T13:33:45.932Z,39.51
2022-08-02T13:37:48.201Z,40.45
2022-08-02T13:41:50.076Z,40.77
2022-08-02T13:45:51.968Z,40.54
2022-08-02T13:49:53.601Z,40.89
2022-08-02T13:53:55.432Z,41.36
2022-08-02T13:57:57.598Z,41.66
2022-08-02T14:01:59.495Z,41.93
2022-08-02T14:06:01.277Z,41.37
2022-08-02T14:10:03.105Z,41.66
2022-08-02T14:14:04.798Z,41.62
2022-08-02T14:18:06.772Z,41.33
2022-08-02T14:22:21.054Z,40.85
2022-08-02T14:26:27.727Z,41.12
2022-08-02T14:30:30.094Z,41.39
2022-08-02T14:34:31.707Z,40.71
2022-08-02T14:38:35.220Z,39.10
2022-08-02T14:42:36.833Z,37.78
2022-08-02T14:46:43.326Z,36.91
2022-08-02T14:50:45.034Z,36.72
2022-08-02T14:54:47.019Z,37.46
2022-08-02T14:58:48.636Z,37.32
2022-08-02T15:02:50.300Z,36.44
2022-08-02T15:06:52.185Z,35.37
2022-08-02T15:10:53.878Z,34.97
2022-08-02T15:14:55.440Z,34.71
2022-08-02T15:18:57.014Z,34.67
2022-08-02T15:22:58.522Z,34.24
2022-08-02T15:27:03.038Z,33.81
2022-08-02T15:31:04.984Z,33.55
2022-08-02T15:35:09.364Z,33.31
2022-08-02T15:39:12.396Z,33.11
2022-08-02T15:43:13.986Z,33.30
2022-08-02T15:47:15.636Z,33.45
2022-08-02T15:51:17.171Z,33.62
2022-08-02T15:55:19.163Z,33.63
2022-08-02T15:59:21.357Z,33.34
2022-08-02T16:03:23.209Z,33.04
2022-08-02T16:07:24.825Z,32.83
2022-08-02T16:11:26.562Z,32.61
2022-08-02T16:15:28.266Z,32.55
2022-08-02T16:19:48.429Z,32.43
2022-08-02T16:23:59.093Z,32.34
2022-08-02T16:28:07.769Z,32.36
2022-08-02T16:32:10.154Z,32.32
2022-08-02T16:36:14.138Z,32.32
2022-08-02T16:40:15.732Z,32.23
2022-08-02T16:44:17.532Z,32.12
2022-08-02T16:48:19.164Z,32.00
2022-08-02T16:52:20.856Z,31.83
2022-08-02T16:56:22.704Z,31.76
2022-08-02T17:00:25.621Z,31.47
2022-08-02T17:04:28.168Z,31.42
2022-08-02T17:08:32.103Z,31.33
2022-08-02T17:12:34.295Z,31.18
2022-08-02T17:16:35.913Z,31.09
2022-08-02T17:20:37.809Z,30.96
2022-08-02T17:24:41.315Z,30.85
2022-08-02T17:33:06.241Z,30.64
2022-08-02T17:37:08.574Z,30.49
2022-08-02T17:41:15.319Z,30.34
2022-08-02T17:45:25.725Z,30.18
2022-08-02T17:49:44.443Z,30.11
2022-08-02T17:53:50.310Z,30.01
2022-08-02T17:57:58.167Z,29.93
2022-08-02T18:02:03.666Z,29.87
2022-08-02T18:06:05.754Z,29.85
2022-08-02T18:10:11.200Z,29.75
2022-08-02T18:14:15.443Z,29.50
2022-08-02T18:18:19.246Z,29.21
2022-08-02T18:22:31.969Z,28.92
2022-08-02T18:26:43.478Z,28.68
2022-08-02T18:30:52.761Z,28.47
2022-08-02T18:35:02.505Z,28.25
2022-08-02T18:54:30.661Z,27.13
2022-08-02T18:58:51.549Z,26.85
2022-08-02T19:07:49.731Z,26.33
2022-08-02T19:11:57.079Z,26.09
2022-08-02T19:17:00.272Z,25.88
2022-08-02T19:21:20.215Z,25.65
2022-08-02T19:25:50.379Z,25.45
2022-08-02T19:30:07.616Z,25.29
2022-08-02T19:34:27.145Z,25.14
2022-08-02T19:38:29.670Z,24.98
2022-08-02T19:42:31.915Z,24.86
2022-08-02T19:46:53.859Z,24.74
2022-08-02T19:51:00.557Z,24.63
2022-08-02T19:55:59.449Z,24.52
2022-08-02T19:59:56.822Z,24.45
2022-08-02T20:10:00.057Z,24.28
2022-08-02T20:29:05.167Z,23.94
2022-08-02T20:33:25.400Z,23.88
2022-08-02T20:38:01.179Z,23.84
2022-08-02T20:42:54.889Z,23.76
2022-08-02T20:47:39.894Z,23.69
2022-08-02T21:12:15.747Z,23.48
2022-08-02T21:16:20.847Z,23.47
2022-08-02T21:20:27.470Z,23.47
2022-08-02T21:24:31.706Z,23.45
2022-08-02T21:28:34.993Z,23.43
2022-08-02T21:32:50.558Z,23.41
2022-08-02T21:36:53.284Z,23.41
2022-08-02T21:40:54.980Z,23.40
2022-08-02T21:44:57.612Z,23.40
2022-08-02T21:49:00.387Z,23.40
2022-08-02T21:53:02.095Z,23.44
2022-08-02T21:57:04.211Z,23.41
2022-08-02T22:01:06.098Z,23.43
2022-08-02T22:05:14.092Z,23.46
2022-08-02T22:09:43.453Z,23.43
2022-08-02T22:13:47.223Z,23.43
2022-08-02T22:18:03.596Z,23.43
2022-08-02T22:22:05.681Z,23.40
2022-08-02T22:26:08.113Z,23.39
2022-08-02T22:30:14.059Z,23.37
2022-08-02T22:34:36.923Z,23.31
2022-08-02T22:38:38.395Z,23.30
2022-08-02T22:42:40.298Z,23.27
2022-08-02T22:46:42.099Z,23.25
2022-08-02T22:50:43.702Z,23.23
2022-08-02T22:54:45.539Z,23.21
2022-08-02T22:58:38.701Z,30.76
2022-08-02T23:03:10.302Z,23.19
2022-08-02T23:07:12.155Z,23.05
2022-08-02T23:11:14.361Z,22.84
2022-08-02T23:15:15.935Z,22.62
2022-08-02T23:19:36.215Z,22.43
2022-08-02T23:23:38.671Z,22.29
2022-08-02T23:27:40.299Z,22.17
2022-08-02T23:31:52.931Z,22.07
2022-08-02T23:35:55.760Z,21.98
2022-08-02T23:39:58.270Z,21.92
2022-08-02T23:44:15.838Z,21.83
2022-08-02T23:48:17.953Z,21.75
2022-08-02T23:52:20.307Z,21.71
2022-08-02T23:56:22.410Z,21.66
